createdAt,value
2019-06-20T17:49:49.389Z,11.40
2019-06-20T17:52:21.438Z,14.55
2019-06-20T17:54:53.494Z,9.10
2019-06-20T17:57:25.800Z,7.72
2019-06-20T17:59:57.774Z,7.95
2019-06-20T18:02:29.322Z,7.47
2019-06-20T18:05:01.871Z,8.80
2019-06-20T18:07:33.710Z,7.92
2019-06-20T18:10:06.222Z,7.90
2019-06-20T18:12:38.229Z,7.72
2019-06-20T18:15:11.321Z,8.00
2019-06-20T18:17:56.443Z,7.42
2019-06-20T18:20:28.443Z,8.40
2019-06-20T18:22:59.915Z,7.37
2019-06-20T18:25:34.320Z,8.83
2019-06-20T18:28:06.492Z,7.65
2019-06-20T18:30:43.109Z,8.43
2019-06-20T18:33:15.163Z,7.28
2019-06-20T18:35:46.535Z,6.95
2019-06-20T18:38:20.499Z,6.87
2019-06-20T18:40:56.810Z,7.08
2019-06-20T18:43:28.320Z,6.60
2019-06-20T18:46:02.211Z,6.70
2019-06-20T18:48:34.233Z,6.80
2019-06-20T18:51:06.310Z,7.12
2019-06-20T18:53:38.645Z,7.30
2019-06-20T18:56:10.138Z,6.72
2019-06-20T18:58:42.151Z,7.40
2019-06-20T19:01:14.156Z,7.80
2019-06-20T19:03:45.933Z,8.23
2019-06-20T19:06:17.852Z,8.10
2019-06-20T19:08:55.188Z,7.40
2019-06-20T19:11:27.512Z,7.55
2019-06-20T19:14:00.073Z,7.22
2019-06-20T19:16:31.908Z,7.60
2019-06-20T19:19:11.955Z,7.67
2019-06-20T19:22:07.716Z,7.17
2019-06-20T19:32:37.873Z,7.20
2019-06-20T19:35:22.520Z,7.35
2019-06-20T19:37:57.850Z,7.25
2019-06-20T19:40:33.461Z,7.15
2019-06-20T19:43:16.482Z,7.15
2019-06-20T19:45:55.737Z,6.83
2019-06-20T19:48:41.333Z,7.25
2019-06-20T19:51:27.654Z,7.15
2019-06-20T19:54:06.553Z,7.00
2019-06-20T19:56:49.692Z,6.90
2019-06-20T19:59:25.868Z,7.15
2019-06-20T20:02:51.764Z,6.92
2019-06-20T20:05:26.147Z,6.60
2019-06-20T20:08:09.308Z,7.17
2019-06-20T20:10:46.203Z,6.78
2019-06-20T20:13:18.768Z,6.70
2019-06-20T20:16:07.091Z,7.47
2019-06-20T20:18:43.892Z,7.72
2019-06-20T20:21:24.639Z,7.37
2019-06-20T20:24:07.633Z,7.05
2019-06-20T20:26:41.043Z,7.33
2019-06-20T20:33:04.433Z,9.18
2019-06-20T20:35:38.831Z,8.73
2019-06-20T20:38:19.205Z,8.53
2019-06-20T20:40:51.330Z,8.98
2019-06-20T20:43:23.181Z,8.35
2019-06-20T20:45:59.853Z,8.60
2019-06-20T20:48:32.446Z,8.30
2019-06-20T20:51:08.848Z,9.05
2019-06-20T20:53:41.035Z,8.78
2019-06-20T20:56:18.944Z,9.48
2019-06-20T20:59:19.647Z,10.10
2019-06-20T21:02:02.757Z,9.45
2019-06-20T21:09:23.917Z,10.10
2019-06-20T21:11:57.828Z,9.58
2019-06-20T21:14:30.576Z,9.43
2019-06-20T21:17:03.173Z,9.15
2019-06-20T21:19:42.566Z,9.68
2019-06-20T21:22:14.887Z,9.45
2019-06-20T21:24:55.759Z,9.85
2019-06-20T21:27:31.942Z,9.13
2019-06-20T21:30:05.489Z,9.78
2019-06-20T21:32:37.666Z,9.35
2019-06-20T21:35:12.291Z,9.38
2019-06-20T21:37:44.175Z,9.18
2019-06-20T21:40:19.692Z,9.73
2019-06-20T21:42:57.415Z,9.53
2019-06-20T21:45:29.378Z,9.38
2019-06-20T21:48:01.459Z,9.30
2019-06-20T21:50:33.668Z,9.68
2019-06-20T21:53:06.077Z,9.73
2019-06-20T21:55:42.752Z,9.13
2019-06-20T21:58:15.405Z,8.80
2019-06-20T22:00:56.198Z,9.08
2019-06-20T22:03:30.172Z,8.85
2019-06-20T22:06:05.116Z,9.73
2019-06-20T22:08:40.521Z,9.65
2019-06-20T22:11:12.913Z,10.05
2019-06-20T22:13:47.272Z,10.35
2019-06-20T22:16:20.160Z,9.85
2019-06-20T22:18:51.822Z,9.05
2019-06-20T22:21:39.627Z,9.73
2019-06-20T22:24:34.668Z,9.28
2019-06-20T22:27:22.199Z,9.75
2019-06-20T22:30:07.254Z,10.18
2019-06-20T22:32:44.859Z,10.20
2019-06-20T22:35:25.615Z,10.03
2019-06-20T22:38:18.406Z,9.08
2019-06-20T22:40:54.087Z,9.43
2019-06-20T22:43:58.627Z,8.78
2019-06-20T22:46:47.444Z,9.00
2019-06-20T22:49:18.768Z,9.53
2019-06-20T22:52:13.234Z,9.58
2019-06-20T22:54:41.915Z,9.35
2019-06-20T23:00:36.413Z,8.83
2019-06-20T23:03:28.280Z,9.13
2019-06-20T23:06:03.182Z,10.03
2019-06-20T23:09:01.634Z,9.40
2019-06-20T23:12:39.973Z,9.50
2019-06-20T23:15:43.792Z,9.20
2019-06-20T23:26:38.337Z,9.23
2019-06-20T23:29:37.673Z,10.30
2019-06-20T23:32:11.956Z,9.65
2019-06-20T23:34:44.718Z,9.60
2019-06-20T23:37:19.177Z,10.15
2019-06-20T23:39:53.447Z,10.70
2019-06-20T23:42:26.186Z,10.58
2019-06-20T23:44:58.586Z,11.22
2019-06-20T23:47:32.751Z,9.88
2019-06-20T23:50:04.775Z,10.43
2019-06-20T23:52:38.649Z,10.32
2019-06-20T23:55:11.328Z,10.70
2019-06-20T23:57:43.373Z,10.23
